sensor_id;sensor_type;location;lat;lon;timestamp;P1;durP1;ratioP1;P2;durP2;ratioP2
22449;SDS011;11392;57.390;-2.468;2022-11-20T00:01:16;19.02;;;5.18;;
22449;SDS011;11392;57.390;-2.468;2022-11-20T00:03:44;25.00;;;5.53;;
22449;SDS011;11392;57.390;-2.468;2022-11-20T00:06:16;17.87;;;4.68;;
22449;SDS011;11392;57.390;-2.468;2022-11-20T00:08:44;17.70;;;5.50;;
22449;SDS011;11392;57.390;-2.468;2022-11-20T00:11:16;20.73;;;3.85;;
22449;SDS011;11392;57.390;-2.468;2022-11-20T00:13:49;18.98;;;4.20;;
22449;SDS011;11392;57.390;-2.468;2022-11-20T00:16:18;14.48;;;4.40;;
22449;SDS011;11392;57.390;-2.468;2022-11-20T00:18:47;20.23;;;4.45;;
22449;SDS011;11392;57.390;-2.468;2022-11-20T00:21:24;14.82;;;4.55;;
22449;SDS011;11392;57.390;-2.468;2022-11-20T00:23:53;15.35;;;5.12;;
22449;SDS011;11392;57.390;-2.468;2022-11-20T00:26:22;21.42;;;4.78;;
22449;SDS011;11392;57.390;-2.468;2022-11-20T00:28:52;12.40;;;4.10;;
22449;SDS011;11392;57.390;-2.468;2022-11-20T00:31:22;22.80;;;4.65;;
22449;SDS011;11392;57.390;-2.468;2022-11-20T00:33:50;13.55;;;4.75;;
22449;SDS011;11392;57.390;-2.468;2022-11-20T00:36:21;21.37;;;5.37;;
22449;SDS011;11392;57.390;-2.468;2022-11-20T00:38:51;14.38;;;3.83;;
22449;SDS011;11392;57.390;-2.468;2022-11-20T00:41:28;14.65;;;3.65;;
22449;SDS011;11392;57.390;-2.468;2022-11-20T00:43:55;15.77;;;3.78;;
22449;SDS011;11392;57.390;-2.468;2022-11-20T00:46:24;18.02;;;3.85;;
22449;SDS011;11392;57.390;-2.468;2022-11-20T00:48:52;18.92;;;4.22;;
22449;SDS011;11392;57.390;-2.468;2022-11-20T00:51:21;9.30;;;3.67;;
22449;SDS011;11392;57.390;-2.468;2022-11-20T00:53:49;10.07;;;3.33;;
22449;SDS011;11392;57.390;-2.468;2022-11-20T00:56:17;11.77;;;3.47;;
22449;SDS011;11392;57.390;-2.468;2022-11-20T00:58:46;16.67;;;3.15;;
22449;SDS011;11392;57.390;-2.468;2022-11-20T01:03:43;17.45;;;3.65;;
22449;SDS011;11392;57.390;-2.468;2022-11-20T01:06:12;8.65;;;3.25;;
22449;SDS011;11392;57.390;-2.468;2022-11-20T01:09:00;11.80;;;3.58;;
22449;SDS011;11392;57.390;-2.468;2022-11-20T01:11:31;10.05;;;3.20;;
22449;SDS011;11392;57.390;-2.468;2022-11-20T01:14:01;14.68;;;3.78;;
22449;SDS011;11392;57.390;-2.468;2022-11-20T01:16:31;15.35;;;4.30;;
22449;SDS011;11392;57.390;-2.468;2022-11-20T01:19:06;13.70;;;3.30;;
22449;SDS011;11392;57.390;-2.468;2022-11-20T01:21:43;13.13;;;3.35;;
22449;SDS011;11392;57.390;-2.468;2022-11-20T01:24:12;14.73;;;3.03;;
22449;SDS011;11392;57.390;-2.468;2022-11-20T01:26:41;16.37;;;3.80;;
22449;SDS011;11392;57.390;-2.468;2022-11-20T01:29:18;10.75;;;4.18;;
22449;SDS011;11392;57.390;-2.468;2022-11-20T01:31:48;17.58;;;3.92;;
22449;SDS011;11392;57.390;-2.468;2022-11-20T01:34:16;13.15;;;3.78;;
22449;SDS011;11392;57.390;-2.468;2022-11-20T01:36:44;18.23;;;3.75;;
22449;SDS011;11392;57.390;-2.468;2022-11-20T01:39:13;16.55;;;4.45;;
22449;SDS011;11392;57.390;-2.468;2022-11-20T01:41:51;15.40;;;4.03;;
22449;SDS011;11392;57.390;-2.468;2022-11-20T01:44:49;14.23;;;3.78;;
22449;SDS011;11392;57.390;-2.468;2022-11-20T01:47:24;8.80;;;3.05;;
22449;SDS011;11392;57.390;-2.468;2022-11-20T01:49:57;10.52;;;3.35;;
22449;SDS011;11392;57.390;-2.468;2022-11-20T01:52:45;14.57;;;3.67;;
22449;SDS011;11392;57.390;-2.468;2022-11-20T01:55:22;16.50;;;3.50;;
22449;SDS011;11392;57.390;-2.468;2022-11-20T01:57:52;16.42;;;3.85;;
22449;SDS011;11392;57.390;-2.468;2022-11-20T02:00:19;15.98;;;4.62;;
22449;SDS011;11392;57.390;-2.468;2022-11-20T02:02:55;10.45;;;2.62;;
22449;SDS011;11392;57.390;-2.468;2022-11-20T02:05:27;12.37;;;3.50;;
22449;SDS011;11392;57.390;-2.468;2022-11-20T02:08:14;16.08;;;3.78;;
22449;SDS011;11392;57.390;-2.468;2022-11-20T02:10:41;14.00;;;3.62;;
22449;SDS011;11392;57.390;-2.468;2022-11-20T02:13:08;8.43;;;2.87;;
22449;SDS011;11392;57.390;-2.468;2022-11-20T02:16:05;13.62;;;3.55;;
22449;SDS011;11392;57.390;-2.468;2022-11-20T02:18:37;15.95;;;4.20;;
22449;SDS011;11392;57.390;-2.468;2022-11-20T02:24:07;10.30;;;4.15;;
22449;SDS011;11392;57.390;-2.468;2022-11-20T02:29:22;13.20;;;4.22;;
22449;SDS011;11392;57.390;-2.468;2022-11-20T02:31:55;17.45;;;3.60;;
22449;SDS011;11392;57.390;-2.468;2022-11-20T02:34:25;10.13;;;3.28;;
22449;SDS011;11392;57.390;-2.468;2022-11-20T02:36:52;11.57;;;3.42;;
22449;SDS011;11392;57.390;-2.468;2022-11-20T02:39:19;17.45;;;3.42;;
22449;SDS011;11392;57.390;-2.468;2022-11-20T02:41:48;7.82;;;3.50;;
22449;SDS011;11392;57.390;-2.468;2022-11-20T02:44:18;13.93;;;3.65;;
22449;SDS011;11392;57.390;-2.468;2022-11-20T02:46:45;12.98;;;3.97;;
22449;SDS011;11392;57.390;-2.468;2022-11-20T02:49:12;11.95;;;3.78;;
22449;SDS011;11392;57.390;-2.468;2022-11-20T02:51:39;12.37;;;3.40;;
22449;SDS011;11392;57.390;-2.468;2022-11-20T02:54:06;7.18;;;3.22;;
22449;SDS011;11392;57.390;-2.468;2022-11-20T02:56:33;12.18;;;4.20;;
22449;SDS011;11392;57.390;-2.468;2022-11-20T02:59:00;10.68;;;3.12;;
22449;SDS011;11392;57.390;-2.468;2022-11-20T03:01:27;9.13;;;2.53;;
22449;SDS011;11392;57.390;-2.468;2022-11-20T03:03:53;8.18;;;2.72;;
22449;SDS011;11392;57.390;-2.468;2022-11-20T03:06:21;9.18;;;2.75;;
22449;SDS011;11392;57.390;-2.468;2022-11-20T03:08:48;10.65;;;3.30;;
22449;SDS011;11392;57.390;-2.468;2022-11-20T03:11:15;8.02;;;3.22;;
22449;SDS011;11392;57.390;-2.468;2022-11-20T03:13:43;5.40;;;2.87;;
22449;SDS011;11392;57.390;-2.468;2022-11-20T03:16:14;10.27;;;3.58;;
22449;SDS011;11392;57.390;-2.468;2022-11-20T03:18:43;7.87;;;3.37;;
22449;SDS011;11392;57.390;-2.468;2022-11-20T03:21:11;7.68;;;2.92;;
22449;SDS011;11392;57.390;-2.468;2022-11-20T03:23:39;10.07;;;2.70;;
22449;SDS011;11392;57.390;-2.468;2022-11-20T03:26:10;7.43;;;2.90;;
22449;SDS011;11392;57.390;-2.468;2022-11-20T03:28:46;11.40;;;3.05;;
22449;SDS011;11392;57.390;-2.468;2022-11-20T03:31:24;6.18;;;2.70;;
22449;SDS011;11392;57.390;-2.468;2022-11-20T03:33:53;7.25;;;2.90;;
22449;SDS011;11392;57.390;-2.468;2022-11-20T03:36:22;6.10;;;2.53;;
22449;SDS011;11392;57.390;-2.468;2022-11-20T03:38:49;8.57;;;2.75;;
22449;SDS011;11392;57.390;-2.468;2022-11-20T03:41:17;8.55;;;2.80;;
22449;SDS011;11392;57.390;-2.468;2022-11-20T03:43:52;7.43;;;2.30;;
22449;SDS011;11392;57.390;-2.468;2022-11-20T03:46:21;7.85;;;2.00;;
22449;SDS011;11392;57.390;-2.468;2022-11-20T03:48:48;2.87;;;1.42;;
22449;SDS011;11392;57.390;-2.468;2022-11-20T03:51:21;2.10;;;1.20;;
22449;SDS011;11392;57.390;-2.468;2022-11-20T03:53:51;4.22;;;1.40;;
22449;SDS011;11392;57.390;-2.468;2022-11-20T03:56:24;5.18;;;1.70;;
22449;SDS011;11392;57.390;-2.468;2022-11-20T03:58:53;3.50;;;1.02;;
22449;SDS011;11392;57.390;-2.468;2022-11-20T04:01:21;2.37;;;0.90;;
22449;SDS011;11392;57.390;-2.468;2022-11-20T04:03:51;5.25;;;1.02;;
22449;SDS011;11392;57.390;-2.468;2022-11-20T04:06:24;2.95;;;1.10;;
22449;SDS011;11392;57.390;-2.468;2022-11-20T04:08:57;5.87;;;1.50;;
22449;SDS011;11392;57.390;-2.468;2022-11-20T04:11:26;4.62;;;1.60;;
22449;SDS011;11392;57.390;-2.468;2022-11-20T04:13:58;5.87;;;1.70;;
22449;SDS011;11392;57.390;-2.468;2022-11-20T04:16:28;4.18;;;1.90;;
22449;SDS011;11392;57.390;-2.468;2022-11-20T04:18:58;6.37;;;1.95;;
22449;SDS011;11392;57.390;-2.468;2022-11-20T04:21:26;5.30;;;2.10;;
22449;SDS011;11392;57.390;-2.468;2022-11-20T04:23:53;3.12;;;1.60;;
22449;SDS011;11392;57.390;-2.468;2022-11-20T04:26:22;9.52;;;1.75;;
22449;SDS011;11392;57.390;-2.468;2022-11-20T04:28:50;6.60;;;2.05;;
22449;SDS011;11392;57.390;-2.468;2022-11-20T04:31:18;6.50;;;2.08;;
22449;SDS011;11392;57.390;-2.468;2022-11-20T04:33:50;5.68;;;2.10;;
22449;SDS011;11392;57.390;-2.468;2022-11-20T04:36:20;6.87;;;2.20;;
22449;SDS011;11392;57.390;-2.468;2022-11-20T04:38:53;5.40;;;2.05;;
22449;SDS011;11392;57.390;-2.468;2022-11-20T04:41:23;3.03;;;1.77;;
22449;SDS011;11392;57.390;-2.468;2022-11-20T04:43:53;2.87;;;1.70;;
22449;SDS011;11392;57.390;-2.468;2022-11-20T04:46:31;4.18;;;1.98;;
22449;SDS011;11392;57.390;-2.468;2022-11-20T04:49:00;3.17;;;1.73;;
22449;SDS011;11392;57.390;-2.468;2022-11-20T04:51:28;5.40;;;2.05;;
22449;SDS011;11392;57.390;-2.468;2022-11-20T04:53:55;6.85;;;2.25;;
22449;SDS011;11392;57.390;-2.468;2022-11-20T04:56:22;5.05;;;1.98;;
22449;SDS011;11392;57.390;-2.468;2022-11-20T04:58:49;5.05;;;2.40;;
22449;SDS011;11392;57.390;-2.468;2022-11-20T05:01:21;4.72;;;1.85;;
22449;SDS011;11392;57.390;-2.468;2022-11-20T05:03:49;3.03;;;1.80;;
22449;SDS011;11392;57.390;-2.468;2022-11-20T05:06:18;6.53;;;1.92;;
22449;SDS011;11392;57.390;-2.468;2022-11-20T05:08:46;3.35;;;1.85;;
22449;SDS011;11392;57.390;-2.468;2022-11-20T05:11:18;3.10;;;1.90;;
22449;SDS011;11392;57.390;-2.468;2022-11-20T05:13:46;5.80;;;1.95;;
22449;SDS011;11392;57.390;-2.468;2022-11-20T05:16:14;4.20;;;1.60;;
22449;SDS011;11392;57.390;-2.468;2022-11-20T05:18:44;4.28;;;2.00;;
22449;SDS011;11392;57.390;-2.468;2022-11-20T05:21:11;4.80;;;1.77;;
22449;SDS011;11392;57.390;-2.468;2022-11-20T05:23:39;6.68;;;2.35;;
22449;SDS011;11392;57.390;-2.468;2022-11-20T05:26:08;3.22;;;1.95;;
22449;SDS011;11392;57.390;-2.468;2022-11-20T05:28:39;4.72;;;1.62;;
22449;SDS011;11392;57.390;-2.468;2022-11-20T05:33:39;7.62;;;2.17;;
22449;SDS011;11392;57.390;-2.468;2022-11-20T05:36:07;4.85;;;2.30;;
22449;SDS011;11392;57.390;-2.468;2022-11-20T05:38:35;7.95;;;2.42;;
22449;SDS011;11392;57.390;-2.468;2022-11-20T05:41:03;5.12;;;2.35;;
22449;SDS011;11392;57.390;-2.468;2022-11-20T05:43:34;5.20;;;2.40;;
22449;SDS011;11392;57.390;-2.468;2022-11-20T05:46:03;4.40;;;1.80;;
22449;SDS011;11392;57.390;-2.468;2022-11-20T05:48:31;2.08;;;1.70;;
22449;SDS011;11392;57.390;-2.468;2022-11-20T05:51:00;2.87;;;1.73;;
22449;SDS011;11392;57.390;-2.468;2022-11-20T05:53:29;4.25;;;1.75;;
22449;SDS011;11392;57.390;-2.468;2022-11-20T05:55:57;3.70;;;1.90;;
22449;SDS011;11392;57.390;-2.468;2022-11-20T05:58:28;7.85;;;2.58;;
22449;SDS011;11392;57.390;-2.468;2022-11-20T06:01:02;4.18;;;1.50;;
22449;SDS011;11392;57.390;-2.468;2022-11-20T06:03:34;3.35;;;1.30;;
22449;SDS011;11392;57.390;-2.468;2022-11-20T06:06:01;2.55;;;1.27;;
22449;SDS011;11392;57.390;-2.468;2022-11-20T06:08:30;4.87;;;1.73;;
22449;SDS011;11392;57.390;-2.468;2022-11-20T06:10:58;7.35;;;1.55;;
22449;SDS011;11392;57.390;-2.468;2022-11-20T06:13:24;4.37;;;1.60;;
22449;SDS011;11392;57.390;-2.468;2022-11-20T06:15:52;3.20;;;1.70;;
22449;SDS011;11392;57.390;-2.468;2022-11-20T06:18:20;7.00;;;1.77;;
22449;SDS011;11392;57.390;-2.468;2022-11-20T06:20:47;7.43;;;1.62;;
22449;SDS011;11392;57.390;-2.468;2022-11-20T06:23:13;3.90;;;2.10;;
22449;SDS011;11392;57.390;-2.468;2022-11-20T06:25:41;3.05;;;1.80;;
22449;SDS011;11392;57.390;-2.468;2022-11-20T06:28:08;2.28;;;1.90;;
22449;SDS011;11392;57.390;-2.468;2022-11-20T06:30:35;3.30;;;1.75;;
22449;SDS011;11392;57.390;-2.468;2022-11-20T06:33:02;4.07;;;2.00;;
22449;SDS011;11392;57.390;-2.468;2022-11-20T06:35:29;6.20;;;3.22;;
22449;SDS011;11392;57.390;-2.468;2022-11-20T06:37:56;3.78;;;1.73;;
22449;SDS011;11392;57.390;-2.468;2022-11-20T06:40:23;5.03;;;2.15;;
22449;SDS011;11392;57.390;-2.468;2022-11-20T06:42:50;2.60;;;1.85;;
22449;SDS011;11392;57.390;-2.468;2022-11-20T06:45:19;2.85;;;1.75;;
22449;SDS011;11392;57.390;-2.468;2022-11-20T06:47:47;4.00;;;1.50;;
22449;SDS011;11392;57.390;-2.468;2022-11-20T06:50:14;3.72;;;1.75;;
22449;SDS011;11392;57.390;-2.468;2022-11-20T06:52:41;4.05;;;1.67;;
22449;SDS011;11392;57.390;-2.468;2022-11-20T06:55:09;2.67;;;1.37;;
22449;SDS011;11392;57.390;-2.468;2022-11-20T06:57:36;2.17;;;1.70;;
22449;SDS011;11392;57.390;-2.468;2022-11-20T07:00:03;5.50;;;1.85;;
22449;SDS011;11392;57.390;-2.468;2022-11-20T07:02:30;3.45;;;2.03;;
22449;SDS011;11392;57.390;-2.468;2022-11-20T07:04:57;4.75;;;1.62;;
22449;SDS011;11392;57.390;-2.468;2022-11-20T07:07:24;3.83;;;1.75;;
22449;SDS011;11392;57.390;-2.468;2022-11-20T07:09:51;1.85;;;1.40;;
22449;SDS011;11392;57.390;-2.468;2022-11-20T07:12:18;4.72;;;2.28;;
22449;SDS011;11392;57.390;-2.468;2022-11-20T07:14:45;5.28;;;1.95;;
22449;SDS011;11392;57.390;-2.468;2022-11-20T07:17:12;2.67;;;1.85;;
22449;SDS011;11392;57.390;-2.468;2022-11-20T07:19:39;2.97;;;1.90;;
22449;SDS011;11392;57.390;-2.468;2022-11-20T07:22:06;5.97;;;1.87;;
22449;SDS011;11392;57.390;-2.468;2022-11-20T07:24:33;5.40;;;2.10;;
22449;SDS011;11392;57.390;-2.468;2022-11-20T07:27:01;4.43;;;1.60;;
22449;SDS011;11392;57.390;-2.468;2022-11-20T07:29:28;3.45;;;1.73;;
22449;SDS011;11392;57.390;-2.468;2022-11-20T07:31:54;3.58;;;1.80;;
22449;SDS011;11392;57.390;-2.468;2022-11-20T07:34:22;5.68;;;2.10;;
22449;SDS011;11392;57.390;-2.468;2022-11-20T07:36:49;3.55;;;1.50;;
22449;SDS011;11392;57.390;-2.468;2022-11-20T07:39:16;4.18;;;1.62;;
22449;SDS011;11392;57.390;-2.468;2022-11-20T07:41:43;3.05;;;1.33;;
22449;SDS011;11392;57.390;-2.468;2022-11-20T07:44:10;3.92;;;1.67;;
22449;SDS011;11392;57.390;-2.468;2022-11-20T07:46:37;2.33;;;1.48;;
22449;SDS011;11392;57.390;-2.468;2022-11-20T07:49:04;3.80;;;1.35;;
22449;SDS011;11392;57.390;-2.468;2022-11-20T07:51:31;2.60;;;1.20;;
22449;SDS011;11392;57.390;-2.468;2022-11-20T07:53:58;6.45;;;1.23;;
22449;SDS011;11392;57.390;-2.468;2022-11-20T07:56:25;2.78;;;1.08;;
22449;SDS011;11392;57.390;-2.468;2022-11-20T07:58:52;1.70;;;1.10;;
22449;SDS011;11392;57.390;-2.468;2022-11-20T08:01:19;5.40;;;1.62;;
22449;SDS011;11392;57.390;-2.468;2022-11-20T08:03:46;1.75;;;1.35;;
22449;SDS011;11392;57.390;-2.468;2022-11-20T08:06:13;3.72;;;1.02;;
22449;SDS011;11392;57.390;-2.468;2022-11-20T08:08:41;2.33;;;1.02;;
22449;SDS011;11392;57.390;-2.468;2022-11-20T08:11:08;3.28;;;1.05;;
22449;SDS011;11392;57.390;-2.468;2022-11-20T08:13:53;2.80;;;1.25;;
22449;SDS011;11392;57.390;-2.468;2022-11-20T08:16:43;4.28;;;1.17;;
22449;SDS011;11392;57.390;-2.468;2022-11-20T08:19:12;2.17;;;0.95;;
22449;SDS011;11392;57.390;-2.468;2022-11-20T08:21:40;4.45;;;1.12;;
22449;SDS011;11392;57.390;-2.468;2022-11-20T08:24:07;1.83;;;1.10;;
22449;SDS011;11392;57.390;-2.468;2022-11-20T08:26:36;2.15;;;1.00;;
22449;SDS011;11392;57.390;-2.468;2022-11-20T08:29:04;6.43;;;1.25;;
22449;SDS011;11392;57.390;-2.468;2022-11-20T08:31:31;3.95;;;0.93;;
22449;SDS011;11392;57.390;-2.468;2022-11-20T08:33:58;5.70;;;1.35;;
22449;SDS011;11392;57.390;-2.468;2022-11-20T08:36:25;5.43;;;1.25;;
22449;SDS011;11392;57.390;-2.468;2022-11-20T08:38:53;3.60;;;1.25;;
22449;SDS011;11392;57.390;-2.468;2022-11-20T08:41:22;4.30;;;1.55;;
22449;SDS011;11392;57.390;-2.468;2022-11-20T08:43:57;3.05;;;1.10;;
22449;SDS011;11392;57.390;-2.468;2022-11-20T08:46:27;6.00;;;1.27;;
22449;SDS011;11392;57.390;-2.468;2022-11-20T08:49:03;3.67;;;1.40;;
22449;SDS011;11392;57.390;-2.468;2022-11-20T08:51:31;6.78;;;2.33;;
22449;SDS011;11392;57.390;-2.468;2022-11-20T08:53:58;4.25;;;1.65;;
22449;SDS011;11392;57.390;-2.468;2022-11-20T08:56:25;5.20;;;1.52;;
22449;SDS011;11392;57.390;-2.468;2022-11-20T08:58:52;1.48;;;1.05;;
22449;SDS011;11392;57.390;-2.468;2022-11-20T09:01:39;2.30;;;0.90;;
22449;SDS011;11392;57.390;-2.468;2022-11-20T09:04:06;2.37;;;1.20;;
22449;SDS011;11392;57.390;-2.468;2022-11-20T09:06:33;4.75;;;1.02;;
22449;SDS011;11392;57.390;-2.468;2022-11-20T09:09:00;5.35;;;1.12;;
22449;SDS011;11392;57.390;-2.468;2022-11-20T09:11:32;3.50;;;0.98;;
22449;SDS011;11392;57.390;-2.468;2022-11-20T09:14:00;3.25;;;0.90;;
22449;SDS011;11392;57.390;-2.468;2022-11-20T09:16:29;1.92;;;1.08;;
22449;SDS011;11392;57.390;-2.468;2022-11-20T09:18:56;5.82;;;1.33;;
22449;SDS011;11392;57.390;-2.468;2022-11-20T09:21:43;5.37;;;1.00;;
22449;SDS011;11392;57.390;-2.468;2022-11-20T09:24:10;2.53;;;1.00;;
22449;SDS011;11392;57.390;-2.468;2022-11-20T09:26:37;5.07;;;1.20;;
22449;SDS011;11392;57.390;-2.468;2022-11-20T09:29:03;4.30;;;1.15;;
22449;SDS011;11392;57.390;-2.468;2022-11-20T09:31:30;5.68;;;1.00;;
22449;SDS011;11392;57.390;-2.468;2022-11-20T09:33:57;1.15;;;0.85;;
22449;SDS011;11392;57.390;-2.468;2022-11-20T09:36:24;5.65;;;1.98;;
22449;SDS011;11392;57.390;-2.468;2022-11-20T09:38:52;4.40;;;1.35;;
22449;SDS011;11392;57.390;-2.468;2022-11-20T09:47:02;1.37;;;0.82;;
22449;SDS011;11392;57.390;-2.468;2022-11-20T09:49:52;4.47;;;1.25;;
22449;SDS011;11392;57.390;-2.468;2022-11-20T09:53:11;1.25;;;1.00;;
22449;SDS011;11392;57.390;-2.468;2022-11-20T09:56:01;2.10;;;0.70;;
22449;SDS011;11392;57.390;-2.468;2022-11-20T09:58:40;4.53;;;1.23;;
22449;SDS011;11392;57.390;-2.468;2022-11-20T10:01:12;5.70;;;1.23;;
22449;SDS011;11392;57.390;-2.468;2022-11-20T10:04:00;5.57;;;1.52;;
22449;SDS011;11392;57.390;-2.468;2022-11-20T10:06:44;5.40;;;2.12;;
22449;SDS011;11392;57.390;-2.468;2022-11-20T10:09:50;5.93;;;1.12;;
22449;SDS011;11392;57.390;-2.468;2022-11-20T10:18:28;2.65;;;0.70;;
22449;SDS011;11392;57.390;-2.468;2022-11-20T10:23:55;2.45;;;1.00;;
22449;SDS011;11392;57.390;-2.468;2022-11-20T10:26:49;1.58;;;0.73;;
22449;SDS011;11392;57.390;-2.468;2022-11-20T10:29:41;5.70;;;1.10;;
22449;SDS011;11392;57.390;-2.468;2022-11-20T10:32:16;3.35;;;0.95;;
22449;SDS011;11392;57.390;-2.468;2022-11-20T10:34:54;4.95;;;1.08;;
22449;SDS011;11392;57.390;-2.468;2022-11-20T10:37:29;3.05;;;0.82;;
22449;SDS011;11392;57.390;-2.468;2022-11-20T10:40:05;4.62;;;1.23;;
22449;SDS011;11392;57.390;-2.468;2022-11-20T10:42:52;5.97;;;1.33;;
22449;SDS011;11392;57.390;-2.468;2022-11-20T10:45:49;1.75;;;0.88;;
22449;SDS011;11392;57.390;-2.468;2022-11-20T10:48:23;2.53;;;0.82;;
22449;SDS011;11392;57.390;-2.468;2022-11-20T10:51:15;4.18;;;1.23;;
22449;SDS011;11392;57.390;-2.468;2022-11-20T10:56:53;2.00;;;1.02;;
22449;SDS011;11392;57.390;-2.468;2022-11-20T10:59:37;2.85;;;1.33;;
22449;SDS011;11392;57.390;-2.468;2022-11-20T11:02:16;2.67;;;1.15;;
22449;SDS011;11392;57.390;-2.468;2022-11-20T11:04:52;2.65;;;1.75;;
22449;SDS011;11392;57.390;-2.468;2022-11-20T11:07:24;4.70;;;1.62;;
22449;SDS011;11392;57.390;-2.468;2022-11-20T11:10:11;3.90;;;1.65;;
22449;SDS011;11392;57.390;-2.468;2022-11-20T11:12:42;2.65;;;1.50;;
22449;SDS011;11392;57.390;-2.468;2022-11-20T11:15:24;4.95;;;1.87;;
22449;SDS011;11392;57.390;-2.468;2022-11-20T11:17:52;2.08;;;1.20;;
22449;SDS011;11392;57.390;-2.468;2022-11-20T11:20:20;2.47;;;1.23;;
22449;SDS011;11392;57.390;-2.468;2022-11-20T11:22:50;2.58;;;1.10;;
22449;SDS011;11392;57.390;-2.468;2022-11-20T11:25:28;5.95;;;1.50;;
22449;SDS011;11392;57.390;-2.468;2022-11-20T11:27:57;4.90;;;2.22;;
22449;SDS011;11392;57.390;-2.468;2022-11-20T11:30:26;3.03;;;1.30;;
22449;SDS011;11392;57.390;-2.468;2022-11-20T11:33:06;2.45;;;1.20;;
22449;SDS011;11392;57.390;-2.468;2022-11-20T11:35:53;3.47;;;1.27;;
22449;SDS011;11392;57.390;-2.468;2022-11-20T11:38:39;3.08;;;1.15;;
22449;SDS011;11392;57.390;-2.468;2022-11-20T11:41:11;5.28;;;1.60;;
22449;SDS011;11392;57.390;-2.468;2022-11-20T11:47:05;5.20;;;1.58;;
22449;SDS011;11392;57.390;-2.468;2022-11-20T11:49:37;2.28;;;1.50;;
22449;SDS011;11392;57.390;-2.468;2022-11-20T11:52:08;3.42;;;2.17;;
22449;SDS011;11392;57.390;-2.468;2022-11-20T11:54:43;4.20;;;1.25;;
22449;SDS011;11392;57.390;-2.468;2022-11-20T12:00:41;2.80;;;1.80;;
22449;SDS011;11392;57.390;-2.468;2022-11-20T12:03:34;1.92;;;1.65;;
22449;SDS011;11392;57.390;-2.468;2022-11-20T12:06:05;3.83;;;1.65;;
22449;SDS011;11392;57.390;-2.468;2022-11-20T12:11:16;6.03;;;2.33;;
22449;SDS011;11392;57.390;-2.468;2022-11-20T12:14:14;5.80;;;2.25;;
22449;SDS011;11392;57.390;-2.468;2022-11-20T12:16:56;4.10;;;2.20;;
22449;SDS011;11392;57.390;-2.468;2022-11-20T12:19:24;3.30;;;1.80;;
22449;SDS011;11392;57.390;-2.468;2022-11-20T12:25:07;3.12;;;2.30;;
22449;SDS011;11392;57.390;-2.468;2022-11-20T12:29:01;2.17;;;1.60;;
22449;SDS011;11392;57.390;-2.468;2022-11-20T12:33:49;2.40;;;1.80;;
22449;SDS011;11392;57.390;-2.468;2022-11-20T12:37:03;1.87;;;0.88;;
22449;SDS011;11392;57.390;-2.468;2022-11-20T12:42:04;3.72;;;1.85;;
22449;SDS011;11392;57.390;-2.468;2022-11-20T12:47:59;5.12;;;2.10;;
22449;SDS011;11392;57.390;-2.468;2022-11-20T12:53:56;4.22;;;2.60;;
22449;SDS011;11392;57.390;-2.468;2022-11-20T12:56:48;6.47;;;2.20;;
22449;SDS011;11392;57.390;-2.468;2022-11-20T13:02:25;3.15;;;2.25;;
22449;SDS011;11392;57.390;-2.468;2022-11-20T13:05:01;4.18;;;1.58;;
22449;SDS011;11392;57.390;-2.468;2022-11-20T13:07:34;3.83;;;2.33;;
22449;SDS011;11392;57.390;-2.468;2022-11-20T13:10:01;4.10;;;2.10;;
22449;SDS011;11392;57.390;-2.468;2022-11-20T13:12:43;4.47;;;2.35;;
22449;SDS011;11392;57.390;-2.468;2022-11-20T13:17:59;2.12;;;1.87;;
22449;SDS011;11392;57.390;-2.468;2022-11-20T13:20:29;3.47;;;2.05;;
22449;SDS011;11392;57.390;-2.468;2022-11-20T13:22:57;7.22;;;2.17;;
22449;SDS011;11392;57.390;-2.468;2022-11-20T13:25:28;2.03;;;1.70;;
22449;SDS011;11392;57.390;-2.468;2022-11-20T13:28:00;4.78;;;1.85;;
22449;SDS011;11392;57.390;-2.468;2022-11-20T13:30:51;1.42;;;1.33;;
22449;SDS011;11392;57.390;-2.468;2022-11-20T13:33:35;2.00;;;1.58;;
22449;SDS011;11392;57.390;-2.468;2022-11-20T13:36:05;1.92;;;1.35;;
22449;SDS011;11392;57.390;-2.468;2022-11-20T13:38:50;2.65;;;1.65;;
22449;SDS011;11392;57.390;-2.468;2022-11-20T13:46:42;3.20;;;1.50;;
22449;SDS011;11392;57.390;-2.468;2022-11-20T13:49:23;1.45;;;1.35;;
22449;SDS011;11392;57.390;-2.468;2022-11-20T13:52:01;1.83;;;1.50;;
22449;SDS011;11392;57.390;-2.468;2022-11-20T13:57:41;1.45;;;1.35;;
22449;SDS011;11392;57.390;-2.468;2022-11-20T14:00:23;1.35;;;1.20;;
22449;SDS011;11392;57.390;-2.468;2022-11-20T14:02:59;1.35;;;0.90;;
22449;SDS011;11392;57.390;-2.468;2022-11-20T14:05:32;0.82;;;0.77;;
22449;SDS011;11392;57.390;-2.468;2022-11-20T14:08:33;0.80;;;0.80;;
22449;SDS011;11392;57.390;-2.468;2022-11-20T14:11:24;1.15;;;0.85;;
22449;SDS011;11392;57.390;-2.468;2022-11-20T14:16:27;2.35;;;1.35;;
22449;SDS011;11392;57.390;-2.468;2022-11-20T14:18:56;3.20;;;1.20;;
22449;SDS011;11392;57.390;-2.468;2022-11-20T14:21:25;3.65;;;1.30;;
22449;SDS011;11392;57.390;-2.468;2022-11-20T14:24:03;2.37;;;1.60;;
22449;SDS011;11392;57.390;-2.468;2022-11-20T14:26:33;2.05;;;1.12;;
22449;SDS011;11392;57.390;-2.468;2022-11-20T14:29:00;2.12;;;1.20;;
22449;SDS011;11392;57.390;-2.468;2022-11-20T14:31:27;1.30;;;1.20;;
22449;SDS011;11392;57.390;-2.468;2022-11-20T14:33:54;2.70;;;1.70;;
22449;SDS011;11392;57.390;-2.468;2022-11-20T14:36:23;2.28;;;1.60;;
22449;SDS011;11392;57.390;-2.468;2022-11-20T14:38:51;2.80;;;2.17;;
22449;SDS011;11392;57.390;-2.468;2022-11-20T14:41:23;2.05;;;1.60;;
22449;SDS011;11392;57.390;-2.468;2022-11-20T14:43:56;4.70;;;2.42;;
22449;SDS011;11392;57.390;-2.468;2022-11-20T14:46:24;2.95;;;1.55;;
22449;SDS011;11392;57.390;-2.468;2022-11-20T14:48:56;2.35;;;1.98;;
22449;SDS011;11392;57.390;-2.468;2022-11-20T14:51:28;3.25;;;1.70;;
22449;SDS011;11392;57.390;-2.468;2022-11-20T14:54:08;2.45;;;2.00;;
22449;SDS011;11392;57.390;-2.468;2022-11-20T14:56:36;2.65;;;2.00;;
22449;SDS011;11392;57.390;-2.468;2022-11-20T14:59:03;2.47;;;1.95;;
22449;SDS011;11392;57.390;-2.468;2022-11-20T15:01:31;4.40;;;1.95;;
22449;SDS011;11392;57.390;-2.468;2022-11-20T15:04:00;4.07;;;2.37;;
22449;SDS011;11392;57.390;-2.468;2022-11-20T15:06:35;3.28;;;2.17;;
22449;SDS011;11392;57.390;-2.468;2022-11-20T15:09:04;3.85;;;2.47;;
22449;SDS011;11392;57.390;-2.468;2022-11-20T15:11:39;4.10;;;2.58;;
22449;SDS011;11392;57.390;-2.468;2022-11-20T15:14:16;2.97;;;2.17;;
22449;SDS011;11392;57.390;-2.468;2022-11-20T15:16:43;3.60;;;2.33;;
22449;SDS011;11392;57.390;-2.468;2022-11-20T15:19:17;4.30;;;3.28;;
22449;SDS011;11392;57.390;-2.468;2022-11-20T15:21:49;5.05;;;2.78;;
22449;SDS011;11392;57.390;-2.468;2022-11-20T15:24:17;3.25;;;2.62;;
22449;SDS011;11392;57.390;-2.468;2022-11-20T15:26:44;4.32;;;2.55;;
22449;SDS011;11392;57.390;-2.468;2022-11-20T15:29:12;4.62;;;2.17;;
22449;SDS011;11392;57.390;-2.468;2022-11-20T15:31:44;2.12;;;1.92;;
22449;SDS011;11392;57.390;-2.468;2022-11-20T15:34:12;3.10;;;2.45;;
22449;SDS011;11392;57.390;-2.468;2022-11-20T15:36:41;3.30;;;2.40;;
22449;SDS011;11392;57.390;-2.468;2022-11-20T15:39:09;2.50;;;2.17;;
22449;SDS011;11392;57.390;-2.468;2022-11-20T15:41:38;4.80;;;2.60;;
22449;SDS011;11392;57.390;-2.468;2022-11-20T15:44:06;5.10;;;2.90;;
22449;SDS011;11392;57.390;-2.468;2022-11-20T15:46:34;2.42;;;1.77;;
22449;SDS011;11392;57.390;-2.468;2022-11-20T15:49:05;3.58;;;2.25;;
22449;SDS011;11392;57.390;-2.468;2022-11-20T15:51:35;12.15;;;7.20;;
22449;SDS011;11392;57.390;-2.468;2022-11-20T15:54:14;13.82;;;10.02;;
22449;SDS011;11392;57.390;-2.468;2022-11-20T15:56:44;10.82;;;8.70;;
22449;SDS011;11392;57.390;-2.468;2022-11-20T15:59:12;8.77;;;6.00;;
22449;SDS011;11392;57.390;-2.468;2022-11-20T16:01:41;9.32;;;6.15;;
22449;SDS011;11392;57.390;-2.468;2022-11-20T16:04:12;12.57;;;7.32;;
22449;SDS011;11392;57.390;-2.468;2022-11-20T16:06:40;7.95;;;5.97;;
22449;SDS011;11392;57.390;-2.468;2022-11-20T16:09:08;12.70;;;6.78;;